Time;durP1;ratioP1;P1;durP2;ratioP2;P2;SDS_P1;SDS_P2;PMS_P1;PMS_P2;Temp;Humidity;BMP_temperature;BMP_pressure;BME280_temperature;BME280_humidity;BME280_pressure;Samples;Min_cycle;Max_cycle;Signal;HPM_P1;HPM_P2
2022/11/06 00:00:16;;;;;;;;;;;19.80;66.90;;;;;;5068237;28;20405;-63
2022/11/06 00:02:41;;;;;;;;;;;19.80;66.90;;;;;;5035859;28;19925;-62
2022/11/06 00:07:51;;;;;;;;;;;19.80;66.90;;;;;;5052220;28;20365;-63
2022/11/06 00:10:16;;;;;;;;;;;19.80;66.90;;;;;;5053153;28;19925;-63
2022/11/06 00:12:45;;;;;;;;;;;19.80;66.90;;;;;;5053202;28;19925;-63
2022/11/06 00:15:10;;;;;;;;;;;19.80;66.90;;;;;;5067980;28;19925;-63
2022/11/06 00:17:36;;;;;;;;;;;19.70;66.80;;;;;;5065083;28;19932;-63
2022/11/06 00:20:05;;;;;;;;;;;19.70;66.80;;;;;;5072698;28;20296;-63
2022/11/06 00:22:34;;;;;;;;;;;19.70;66.80;;;;;;5054779;28;19924;-63
2022/11/06 00:25:00;;;;;;;;;;;19.70;66.80;;;;;;5072781;28;20023;-62
2022/11/06 00:27:25;;;;;;;;;;;19.70;66.70;;;;;;5073163;28;20009;-62
2022/11/06 00:29:51;;;;;;;;;;;19.70;66.70;;;;;;5072009;28;20028;-62
2022/11/06 00:32:16;;;;;;;;;;;19.70;66.70;;;;;;5072637;28;19924;-62
2022/11/06 00:34:42;;;;;;;;;;;19.70;66.70;;;;;;5072935;28;19989;-62
2022/11/06 00:37:07;;;;;;;;;;;19.70;66.70;;;;;;5071934;28;20327;-62
2022/11/06 00:39:33;;;;;;;;;;;19.70;66.70;;;;;;5071933;28;19936;-62
2022/11/06 00:42:01;;;;;;;;;;;19.70;66.70;;;;;;5072391;28;19920;-62
2022/11/06 00:44:27;;;;;;;;;;;19.70;66.70;;;;;;5053803;28;19928;-62
2022/11/06 00:46:52;;;;;;;;;;;19.70;66.70;;;;;;5072620;28;20015;-62
2022/11/06 00:49:18;;;;;;;;;;;19.60;66.60;;;;;;5072143;28;19985;-62
2022/11/06 00:51:44;;;;;;;;;;;19.60;66.70;;;;;;5054604;28;20027;-62
2022/11/06 00:54:10;;;;;;;;;;;19.60;66.60;;;;;;5054470;28;20011;-63
2022/11/06 00:56:35;;;;;;;;;;;19.60;66.60;;;;;;5072048;28;20007;-62
2022/11/06 00:59:01;;;;;;;;;;;19.60;66.60;;;;;;5072155;28;20015;-62
2022/11/06 01:01:27;;;;;;;;;;;19.60;66.60;;;;;;5072473;28;19935;-64
2022/11/06 01:03:53;;;;;;;;;;;19.60;66.60;;;;;;5071563;28;19924;-63
2022/11/06 01:06:19;;;;;;;;;;;19.60;66.60;;;;;;5072531;28;19968;-63
2022/11/06 01:08:45;;;;;;;;;;;19.60;66.60;;;;;;5072279;28;19924;-63
2022/11/06 01:11:11;;;;;;;;;;;19.60;66.60;;;;;;5071636;28;20061;-63
2022/11/06 01:13:37;;;;;;;;;;;19.60;66.60;;;;;;5072772;28;19956;-63
2022/11/06 01:16:07;;;;;;;;;;;19.60;66.60;;;;;;5053799;28;20409;-64
2022/11/06 01:18:32;;;;;;;;;;;19.50;66.50;;;;;;5071608;28;19925;-64
2022/11/06 01:21:02;;;;;;;;;;;19.50;66.50;;;;;;5072433;28;19925;-63
2022/11/06 01:23:27;;;;;;;;;;;19.60;66.50;;;;;;5054459;28;20011;-63
2022/11/06 01:25:56;;;;;;;;;;;19.50;66.50;;;;;;5071430;28;20081;-61
2022/11/06 01:28:22;;;;;;;;;;;19.50;66.50;;;;;;5054564;28;19944;-62
2022/11/06 01:30:47;;;;;;;;;;;19.50;66.50;;;;;;5053789;28;19928;-62
2022/11/06 01:33:13;;;;;;;;;;;19.50;66.50;;;;;;5071479;28;20011;-62
2022/11/06 01:35:45;;;;;;;;;;;19.50;66.40;;;;;;5072292;28;20371;-62
2022/11/06 01:38:10;;;;;;;;;;;19.50;66.50;;;;;;5072303;28;19925;-62
2022/11/06 01:40:42;;;;;;;;;;;19.50;66.50;;;;;;5071505;28;19957;-62
2022/11/06 01:43:14;;;;;;;;;;;19.50;66.40;;;;;;5071094;28;20363;-63
2022/11/06 01:45:40;;;;;;;;;;;19.50;66.40;;;;;;5053395;28;19924;-63
2022/11/06 01:48:05;;;;;;;;;;;19.50;66.40;;;;;;5070674;28;19925;-63
2022/11/06 01:50:31;;;;;;;;;;;19.50;66.40;;;;;;5055117;28;20379;-63
2022/11/06 01:52:59;;;;;;;;;;;19.40;66.30;;;;;;5074800;28;19924;-63
2022/11/06 01:55:30;;;;;;;;;;;19.40;66.40;;;;;;5074946;28;19972;-62
2022/11/06 01:57:56;;;;;;;;;;;19.40;66.40;;;;;;5075714;28;19978;-63
2022/11/06 02:00:21;;;;;;;;;;;19.50;66.40;;;;;;5073767;28;20296;-63
2022/11/06 02:02:47;;;;;;;;;;;19.40;66.30;;;;;;5075248;28;19951;-62
2022/11/06 02:05:12;;;;;;;;;;;19.50;66.40;;;;;;5075748;28;19935;-62
2022/11/06 02:07:38;;;;;;;;;;;19.40;66.30;;;;;;5074856;28;20004;-62
2022/11/06 02:10:04;;;;;;;;;;;19.40;66.30;;;;;;5057521;28;19932;-62
2022/11/06 02:12:35;;;;;;;;;;;19.40;66.30;;;;;;5057831;28;19924;-61
2022/11/06 02:15:12;;;;;;;;;;;19.40;66.30;;;;;;5074577;28;19971;-62
2022/11/06 02:17:48;;;;;;;;;;;19.40;66.30;;;;;;5057595;28;20493;-62
2022/11/06 02:20:13;;;;;;;;;;;19.40;66.30;;;;;;5074435;28;19941;-63
2022/11/06 02:22:39;;;;;;;;;;;19.40;66.20;;;;;;5074858;28;19925;-62
2022/11/06 02:25:11;;;;;;;;;;;19.40;66.20;;;;;;5075364;28;19928;-63
2022/11/06 02:27:37;;;;;;;;;;;19.40;66.20;;;;;;5057300;28;19964;-63
2022/11/06 02:30:06;;;;;;;;;;;19.40;66.20;;;;;;5056218;28;19978;-62
2022/11/06 02:32:33;;;;;;;;;;;19.40;66.20;;;;;;5074080;28;19924;-63
2022/11/06 02:34:59;;;;;;;;;;;19.40;66.20;;;;;;5072971;28;19924;-63
2022/11/06 02:37:25;;;;;;;;;;;19.40;66.20;;;;;;5073997;28;20379;-63
2022/11/06 02:39:51;;;;;;;;;;;19.40;66.30;;;;;;5057192;28;19931;-63
2022/11/06 02:42:17;;;;;;;;;;;19.40;66.30;;;;;;5056202;28;19929;-62
2022/11/06 02:44:42;;;;;;;;;;;19.40;66.20;;;;;;5056599;28;19932;-62
2022/11/06 02:47:09;;;;;;;;;;;19.30;66.20;;;;;;5075148;28;19924;-62
2022/11/06 02:49:43;;;;;;;;;;;19.30;66.20;;;;;;5056391;28;19935;-62
2022/11/06 02:52:19;;;;;;;;;;;19.30;66.20;;;;;;5073800;28;19928;-62
2022/11/06 02:54:52;;;;;;;;;;;19.30;66.20;;;;;;5074518;28;20061;-62
2022/11/06 02:57:18;;;;;;;;;;;19.30;66.20;;;;;;5056270;28;19924;-62
2022/11/06 02:59:46;;;;;;;;;;;19.30;66.10;;;;;;5074581;28;19929;-62
2022/11/06 03:02:16;;;;;;;;;;;19.30;66.20;;;;;;5071950;28;19969;-62
2022/11/06 03:04:46;;;;;;;;;;;19.30;66.10;;;;;;5073641;28;19921;-62
2022/11/06 03:07:17;;;;;;;;;;;19.30;66.20;;;;;;5074226;28;20014;-63
2022/11/06 03:09:42;;;;;;;;;;;19.30;66.20;;;;;;5056724;28;20367;-63
2022/11/06 03:12:12;;;;;;;;;;;19.30;66.10;;;;;;5055738;28;19931;-63
2022/11/06 03:14:52;;;;;;;;;;;19.30;66.10;;;;;;5056388;28;20288;-63
2022/11/06 03:17:38;;;;;;;;;;;19.30;66.10;;;;;;5073772;28;20021;-63
2022/11/06 03:20:13;;;;;;;;;;;19.30;66.10;;;;;;5073214;28;19928;-62
2022/11/06 03:22:47;;;;;;;;;;;19.30;66.10;;;;;;5074573;28;19925;-61
2022/11/06 03:25:15;;;;;;;;;;;19.30;66.10;;;;;;5073356;28;19966;-61
2022/11/06 03:28:04;;;;;;;;;;;19.20;66.10;;;;;;5074170;28;19924;-61
2022/11/06 03:30:30;;;;;;;;;;;19.20;66.10;;;;;;5064739;28;20284;-62
2022/11/06 03:32:57;;;;;;;;;;;19.20;66.10;;;;;;5073161;28;19931;-62
2022/11/06 03:35:25;;;;;;;;;;;19.20;66.10;;;;;;5056135;28;19931;-63
2022/11/06 03:37:58;;;;;;;;;;;19.20;66.10;;;;;;5055872;28;19925;-63
2022/11/06 03:40:25;;;;;;;;;;;19.20;66.10;;;;;;5038719;28;19929;-63
2022/11/06 03:42:50;;;;;;;;;;;19.20;66.10;;;;;;5055843;28;20015;-63
2022/11/06 03:45:20;;;;;;;;;;;19.20;66.00;;;;;;5038476;28;20497;-63
2022/11/06 03:47:54;;;;;;;;;;;19.20;66.10;;;;;;5073860;28;19925;-63
2022/11/06 03:50:21;;;;;;;;;;;19.20;66.10;;;;;;5039018;28;19931;-63
2022/11/06 03:53:16;;;;;;;;;;;19.20;66.10;;;;;;5072583;28;19924;-63
2022/11/06 03:55:46;;;;;;;;;;;19.20;66.10;;;;;;5019002;28;20053;-62
2022/11/06 03:58:16;;;;;;;;;;;19.20;66.10;;;;;;5055649;28;19978;-62
2022/11/06 04:00:41;;;;;;;;;;;19.20;66.00;;;;;;5055085;28;20352;-62
2022/11/06 04:03:12;;;;;;;;;;;19.20;66.00;;;;;;5073153;28;19924;-62
2022/11/06 04:05:39;;;;;;;;;;;19.20;66.00;;;;;;5088815;28;20291;-62
2022/11/06 04:16:18;;;;;;;;;;;19.20;65.90;;;;;;5088970;28;19928;-63
2022/11/06 04:18:43;;;;;;;;;;;19.30;66.00;;;;;;5055057;28;20276;-63
2022/11/06 04:21:29;;;;;;;;;;;19.30;65.80;;;;;;5072337;28;19991;-63
2022/11/06 04:26:56;;;;;;;;;;;19.30;65.80;;;;;;5088339;28;19924;-63
2022/11/06 04:29:27;;;;;;;;;;;19.30;65.80;;;;;;5054548;28;20364;-62
2022/11/06 04:32:22;;;;;;;;;;;19.30;65.80;;;;;;5072539;28;20002;-63
2022/11/06 04:34:51;;;;;;;;;;;19.30;65.80;;;;;;5062584;28;19948;-62
2022/11/06 04:37:21;;;;;;;;;;;19.40;65.80;;;;;;5071821;28;19920;-63
2022/11/06 04:40:07;;;;;;;;;;;19.40;65.80;;;;;;5072458;28;19925;-63
2022/11/06 04:42:39;;;;;;;;;;;19.40;65.80;;;;;;5071066;28;19924;-63
2022/11/06 04:45:06;;;;;;;;;;;19.40;65.80;;;;;;5072269;28;19932;-63
2022/11/06 04:47:32;;;;;;;;;;;19.40;65.70;;;;;;5071508;28;20019;-62
2022/11/06 04:49:58;;;;;;;;;;;19.40;65.60;;;;;;5071582;28;20011;-62
2022/11/06 04:52:24;;;;;;;;;;;19.40;65.70;;;;;;5071377;28;19947;-63
2022/11/06 04:54:49;;;;;;;;;;;19.40;65.60;;;;;;5054426;28;19971;-62
2022/11/06 04:57:15;;;;;;;;;;;19.50;65.60;;;;;;5053784;28;19932;-63
2022/11/06 04:59:40;;;;;;;;;;;19.50;65.60;;;;;;5072835;28;19978;-63
2022/11/06 05:02:06;;;;;;;;;;;19.50;65.60;;;;;;5062636;28;20364;-63
2022/11/06 05:04:31;;;;;;;;;;;19.50;65.60;;;;;;5067430;28;20338;-62
2022/11/06 05:06:57;;;;;;;;;;;19.50;65.50;;;;;;5053546;28;20015;-61
2022/11/06 05:09:22;;;;;;;;;;;19.60;65.60;;;;;;5072214;28;19985;-62
2022/11/06 05:11:48;;;;;;;;;;;19.60;65.60;;;;;;5071276;28;19929;-62
2022/11/06 05:14:13;;;;;;;;;;;19.60;65.50;;;;;;5072274;28;20298;-62
2022/11/06 05:16:39;;;;;;;;;;;19.60;65.50;;;;;;5071908;28;19931;-63
2022/11/06 05:19:04;;;;;;;;;;;19.60;65.50;;;;;;5054302;28;19925;-61
2022/11/06 05:24:17;;;;;;;;;;;19.60;65.50;;;;;;5071511;28;19925;-62
2022/11/06 05:26:42;;;;;;;;;;;19.60;65.50;;;;;;5074885;28;19990;-62
2022/11/06 05:29:08;;;;;;;;;;;19.60;65.50;;;;;;5076789;28;20314;-62
2022/11/06 05:31:33;;;;;;;;;;;19.70;65.50;;;;;;5075966;28;20296;-62
2022/11/06 05:33:59;;;;;;;;;;;19.70;65.50;;;;;;5075957;28;19927;-62
2022/11/06 05:36:24;;;;;;;;;;;19.70;65.50;;;;;;5076065;28;20406;-62
2022/11/06 05:38:50;;;;;;;;;;;19.70;65.40;;;;;;5057247;28;19928;-62
2022/11/06 05:41:15;;;;;;;;;;;19.70;65.40;;;;;;5076461;28;19970;-63
2022/11/06 05:43:41;;;;;;;;;;;19.70;65.40;;;;;;5075825;28;19924;-63
2022/11/06 05:46:06;;;;;;;;;;;19.70;65.50;;;;;;5075358;28;19931;-61
2022/11/06 05:48:32;;;;;;;;;;;19.80;65.50;;;;;;5076026;28;19925;-62
2022/11/06 05:51:04;;;;;;;;;;;19.80;65.50;;;;;;5075660;28;19929;-61
2022/11/06 05:53:30;;;;;;;;;;;19.80;65.50;;;;;;5075195;28;19928;-62
2022/11/06 05:55:56;;;;;;;;;;;19.80;65.40;;;;;;5075889;28;19924;-62
2022/11/06 05:58:21;;;;;;;;;;;19.80;65.50;;;;;;5058219;28;20421;-63
2022/11/06 06:00:49;;;;;;;;;;;19.80;65.50;;;;;;5057067;28;19924;-62
2022/11/06 06:03:15;;;;;;;;;;;19.80;65.50;;;;;;5075750;28;19931;-62
2022/11/06 06:05:40;;;;;;;;;;;19.80;65.40;;;;;;5075633;28;19977;-63
2022/11/06 06:08:06;;;;;;;;;;;19.80;65.40;;;;;;5074364;28;19925;-62
2022/11/06 06:10:31;;;;;;;;;;;19.80;65.40;;;;;;5075692;28;19948;-63
2022/11/06 06:13:00;;;;;;;;;;;19.80;65.40;;;;;;5074703;28;20022;-63
2022/11/06 06:15:25;;;;;;;;;;;19.80;65.40;;;;;;5075760;28;19931;-63
2022/11/06 06:17:50;;;;;;;;;;;19.80;65.40;;;;;;5057361;28;19924;-63
2022/11/06 06:20:16;;;;;;;;;;;19.80;65.40;;;;;;5057000;28;20019;-62
2022/11/06 06:22:41;;;;;;;;;;;19.80;65.40;;;;;;5057759;28;19925;-61
2022/11/06 06:25:07;;;;;;;;;;;19.80;65.40;;;;;;5057520;28;19931;-62
2022/11/06 06:27:33;;;;;;;;;;;19.80;65.40;;;;;;5074717;28;19924;-62
2022/11/06 06:29:58;;;;;;;;;;;19.80;65.30;;;;;;5075008;28;19925;-62
2022/11/06 06:32:24;;;;;;;;;;;19.90;65.40;;;;;;5075332;28;20085;-62
2022/11/06 06:35:01;;;;;;;;;;;19.90;65.40;;;;;;5073876;28;19931;-62
2022/11/06 06:37:27;;;;;;;;;;;19.90;65.40;;;;;;5075263;28;19929;-62
2022/11/06 06:39:52;;;;;;;;;;;19.90;65.40;;;;;;5075149;28;19931;-63
2022/11/06 06:42:18;;;;;;;;;;;19.90;65.40;;;;;;5056600;28;19928;-62
2022/11/06 06:44:43;;;;;;;;;;;19.90;65.40;;;;;;5074682;28;19924;-62
2022/11/06 06:47:09;;;;;;;;;;;19.90;65.40;;;;;;5074844;28;19928;-63
2022/11/06 06:49:35;;;;;;;;;;;19.90;65.40;;;;;;5074544;28;19932;-62
2022/11/06 06:52:00;;;;;;;;;;;19.90;65.40;;;;;;5074529;28;20003;-62
2022/11/06 06:54:26;;;;;;;;;;;19.90;65.40;;;;;;5074746;28;20058;-62
2022/11/06 06:56:54;;;;;;;;;;;19.90;65.40;;;;;;5074220;28;20432;-62
2022/11/06 06:59:22;;;;;;;;;;;19.90;65.40;;;;;;5074985;28;19925;-62
2022/11/06 07:01:48;;;;;;;;;;;19.90;65.30;;;;;;5074324;28;19924;-63
2022/11/06 07:04:13;;;;;;;;;;;19.90;65.30;;;;;;5070691;28;20323;-63
2022/11/06 07:06:39;;;;;;;;;;;19.90;65.30;;;;;;5054646;28;20365;-63
2022/11/06 07:09:04;;;;;;;;;;;20.00;65.40;;;;;;5054093;28;19979;-63
2022/11/06 07:11:30;;;;;;;;;;;20.00;65.40;;;;;;5054060;28;19925;-63
2022/11/06 07:13:55;;;;;;;;;;;19.90;65.30;;;;;;5054241;28;20308;-64
2022/11/06 07:16:20;;;;;;;;;;;20.00;65.30;;;;;;5053318;28;19967;-64
2022/11/06 07:18:46;;;;;;;;;;;20.00;65.40;;;;;;5054360;28;19929;-63
2022/11/06 07:21:11;;;;;;;;;;;20.00;65.30;;;;;;5054199;28;19976;-63
2022/11/06 07:23:37;;;;;;;;;;;20.00;65.30;;;;;;5053616;28;20376;-62
2022/11/06 07:26:03;;;;;;;;;;;20.00;65.30;;;;;;5053674;28;19925;-62
2022/11/06 07:28:28;;;;;;;;;;;20.00;65.30;;;;;;5054349;28;20007;-63
2022/11/06 07:31:00;;;;;;;;;;;20.00;65.30;;;;;;5053002;28;19925;-63
2022/11/06 07:33:26;;;;;;;;;;;20.00;65.30;;;;;;5036430;28;19931;-62
2022/11/06 07:35:51;;;;;;;;;;;20.00;65.30;;;;;;5053886;28;20314;-63
2022/11/06 07:38:17;;;;;;;;;;;20.00;65.30;;;;;;5053093;28;19928;-63
2022/11/06 07:40:42;;;;;;;;;;;20.00;65.40;;;;;;5072093;28;20490;-64
2022/11/06 07:43:08;;;;;;;;;;;20.00;65.50;;;;;;5073907;28;19921;-63
2022/11/06 07:45:34;;;;;;;;;;;20.00;65.50;;;;;;5072898;28;20015;-64
2022/11/06 07:47:59;;;;;;;;;;;20.00;65.60;;;;;;5072645;28;20058;-64
2022/11/06 07:50:25;;;;;;;;;;;20.00;65.50;;;;;;5055858;28;19969;-64
2022/11/06 07:52:50;;;;;;;;;;;20.00;65.50;;;;;;5072563;28;20375;-64
2022/11/06 07:55:16;;;;;;;;;;;20.00;65.40;;;;;;5073769;28;20287;-64
2022/11/06 07:57:41;;;;;;;;;;;20.10;65.50;;;;;;5074016;28;19925;-64
2022/11/06 08:00:08;;;;;;;;;;;20.10;65.70;;;;;;5072173;28;19932;-64
2022/11/06 08:02:33;;;;;;;;;;;20.10;65.70;;;;;;5073829;28;19932;-63
2022/11/06 08:04:59;;;;;;;;;;;20.00;65.70;;;;;;5073274;28;19924;-63
2022/11/06 08:07:24;;;;;;;;;;;20.10;65.80;;;;;;5072595;28;19932;-64
2022/11/06 08:09:50;;;;;;;;;;;20.10;65.80;;;;;;5073181;28;19931;-64
2022/11/06 08:12:15;;;;;;;;;;;20.10;65.90;;;;;;5073485;28;19983;-63
2022/11/06 08:14:40;;;;;;;;;;;20.10;65.90;;;;;;5072666;28;19921;-64
2022/11/06 08:17:06;;;;;;;;;;;20.10;66.00;;;;;;5073074;28;20046;-64
2022/11/06 08:19:31;;;;;;;;;;;20.20;65.90;;;;;;5072328;28;20015;-64
2022/11/06 08:21:57;;;;;;;;;;;20.20;66.00;;;;;;5072479;28;20005;-63
2022/11/06 08:24:25;;;;;;;;;;;20.20;66.00;;;;;;5073035;28;20042;-63
2022/11/06 08:26:50;;;;;;;;;;;20.20;65.90;;;;;;5072141;28;19976;-64
2022/11/06 08:29:15;;;;;;;;;;;20.20;65.90;;;;;;5042635;28;20026;-64
2022/11/06 08:31:41;;;;;;;;;;;20.20;65.80;;;;;;5053135;28;19935;-64
2022/11/06 08:34:07;;;;;;;;;;;20.20;65.90;;;;;;5052119;28;19978;-65
2022/11/06 08:36:37;;;;;;;;;;;20.30;66.10;;;;;;5053033;28;19932;-65
2022/11/06 08:39:02;;;;;;;;;;;20.30;66.10;;;;;;5052821;28;19990;-65
2022/11/06 08:41:28;;;;;;;;;;;20.20;66.10;;;;;;5052166;28;19925;-65
2022/11/06 08:43:56;;;;;;;;;;;20.30;66.10;;;;;;5052220;28;19932;-65
2022/11/06 08:46:21;;;;;;;;;;;20.30;66.10;;;;;;5052529;28;20292;-65
2022/11/06 08:48:47;;;;;;;;;;;20.30;66.10;;;;;;5051729;28;19931;-65
2022/11/06 08:51:12;;;;;;;;;;;20.30;66.10;;;;;;5052505;28;19925;-65
2022/11/06 08:53:38;;;;;;;;;;;20.30;66.10;;;;;;5034867;28;19925;-65
2022/11/06 08:56:03;;;;;;;;;;;20.30;66.10;;;;;;5051341;28;20027;-65
2022/11/06 08:58:29;;;;;;;;;;;20.30;66.10;;;;;;5052430;28;20019;-65
2022/11/06 09:00:54;;;;;;;;;;;20.30;66.10;;;;;;5033880;28;19928;-65
2022/11/06 09:03:22;;;;;;;;;;;20.30;66.20;;;;;;5051936;28;20314;-65
2022/11/06 09:05:48;;;;;;;;;;;20.30;66.20;;;;;;5034020;28;20473;-65
2022/11/06 09:08:14;;;;;;;;;;;20.30;66.20;;;;;;5051906;28;20011;-62
2022/11/06 09:10:40;;;;;;;;;;;20.30;66.20;;;;;;5050623;28;19932;-64
2022/11/06 09:13:06;;;;;;;;;;;20.30;66.10;;;;;;5034896;28;19925;-64
2022/11/06 09:15:31;;;;;;;;;;;20.30;66.00;;;;;;5052576;28;19951;-64
2022/11/06 09:17:57;;;;;;;;;;;20.30;66.00;;;;;;5033529;28;19925;-64
2022/11/06 09:20:23;;;;;;;;;;;20.30;66.00;;;;;;5052163;28;20007;-64
2022/11/06 09:22:49;;;;;;;;;;;20.30;66.00;;;;;;5051756;28;19925;-64
2022/11/06 09:25:14;;;;;;;;;;;20.30;65.90;;;;;;5052650;28;19929;-64
2022/11/06 09:27:40;;;;;;;;;;;20.30;66.00;;;;;;5052414;28;19951;-65
2022/11/06 09:30:06;;;;;;;;;;;20.30;65.90;;;;;;5051891;28;19935;-64
2022/11/06 09:32:32;;;;;;;;;;;20.30;65.90;;;;;;5052661;28;19925;-64
2022/11/06 09:34:57;;;;;;;;;;;20.30;65.90;;;;;;5050226;28;19925;-64
2022/11/06 09:37:23;;;;;;;;;;;20.30;65.90;;;;;;5051523;28;20335;-64
2022/11/06 09:39:48;;;;;;;;;;;20.30;65.90;;;;;;5056109;28;20020;-64
2022/11/06 09:42:30;;;;;;;;;;;20.30;65.80;;;;;;5054724;28;19968;-64
2022/11/06 09:44:56;;;;;;;;;;;20.30;65.80;;;;;;5048836;28;19940;-64
2022/11/06 09:47:22;;;;;;;;;;;20.30;65.80;;;;;;5036155;28;19925;-65
2022/11/06 09:49:54;;;;;;;;;;;20.30;65.80;;;;;;5069741;28;20013;-65
2022/11/06 09:52:29;;;;;;;;;;;20.30;65.80;;;;;;5070229;28;19990;-66
2022/11/06 09:55:04;;;;;;;;;;;20.20;65.80;;;;;;5051216;28;19992;-65
2022/11/06 09:57:37;;;;;;;;;;;20.20;65.80;;;;;;5062682;28;19950;-63
2022/11/06 10:00:03;;;;;;;;;;;20.20;66.40;;;;;;5052395;28;19929;-63
2022/11/06 10:02:49;;;;;;;;;;;20.20;65.90;;;;;;5053138;28;20283;-64
2022/11/06 10:05:25;;;;;;;;;;;20.20;66.00;;;;;;5062071;28;20768;-66
2022/11/06 10:07:55;;;;;;;;;;;20.20;66.10;;;;;;5061459;28;19977;-65
2022/11/06 10:10:22;;;;;;;;;;;20.20;66.10;;;;;;5051755;28;20319;-65
2022/11/06 10:12:54;;;;;;;;;;;20.20;66.10;;;;;;5047251;28;19924;-65
2022/11/06 10:15:41;;;;;;;;;;;20.20;66.10;;;;;;5064226;28;20013;-64
2022/11/06 10:18:25;;;;;;;;;;;20.20;66.20;;;;;;5075423;28;20371;-63
2022/11/06 10:20:51;;;;;;;;;;;20.20;66.10;;;;;;5073753;28;19924;-63
2022/11/06 10:23:26;;;;;;;;;;;20.20;65.90;;;;;;5075006;28;19969;-64
2022/11/06 10:26:18;;;;;;;;;;;20.20;65.90;;;;;;5057442;28;20384;-64
2022/11/06 10:28:55;;;;;;;;;;;20.20;65.80;;;;;;5055341;28;19924;-63
2022/11/06 10:31:24;;;;;;;;;;;20.20;65.70;;;;;;5075207;28;19967;-65
2022/11/06 10:33:55;;;;;;;;;;;20.20;65.60;;;;;;5060189;28;20295;-65
2022/11/06 10:36:21;;;;;;;;;;;20.20;65.60;;;;;;5060656;28;19925;-66
2022/11/06 10:38:47;;;;;;;;;;;20.20;65.60;;;;;;5062771;28;19993;-66
2022/11/06 10:41:14;;;;;;;;;;;20.20;65.50;;;;;;5045022;28;19931;-64
2022/11/06 10:43:53;;;;;;;;;;;20.20;65.60;;;;;;5050319;28;19948;-65
2022/11/06 10:46:34;;;;;;;;;;;20.20;65.60;;;;;;5057110;28;20019;-66
2022/11/06 10:49:00;;;;;;;;;;;20.20;65.80;;;;;;5056165;28;19925;-65
2022/11/06 10:51:35;;;;;;;;;;;20.10;65.80;;;;;;5057253;28;19924;-62
2022/11/06 10:54:27;;;;;;;;;;;20.20;65.90;;;;;;5074689;28;19924;-67
2022/11/06 10:57:02;;;;;;;;;;;20.20;65.90;;;;;;5071313;28;19970;-68
2022/11/06 10:59:28;;;;;;;;;;;20.20;66.10;;;;;;5074593;28;19928;-68
2022/11/06 11:01:53;;;;;;;;;;;20.20;65.50;;;;;;5073426;28;19925;-68
2022/11/06 11:04:22;;;;;;;;;;;20.20;65.50;;;;;;5056769;28;19969;-67
2022/11/06 11:06:47;;;;;;;;;;;20.20;65.60;;;;;;5074194;28;20367;-66
2022/11/06 11:09:29;;;;;;;;;;;20.10;65.50;;;;;;5074096;28;19977;-67
2022/11/06 11:11:55;;;;;;;;;;;20.20;65.60;;;;;;5074546;28;19935;-67
2022/11/06 11:14:21;;;;;;;;;;;20.20;65.60;;;;;;5056800;28;19924;-67
2022/11/06 11:16:50;;;;;;;;;;;20.20;65.60;;;;;;5073558;28;19932;-65
2022/11/06 11:19:35;;;;;;;;;;;20.20;65.60;;;;;;5053851;28;19928;-64
2022/11/06 11:22:01;;;;;;;;;;;20.20;65.50;;;;;;5071559;28;19950;-64
2022/11/06 11:24:27;;;;;;;;;;;20.20;65.60;;;;;;5066964;28;19925;-64
2022/11/06 11:26:53;;;;;;;;;;;20.20;65.70;;;;;;5070608;28;19931;-64
2022/11/06 11:29:43;;;;;;;;;;;20.20;65.80;;;;;;5067063;28;19924;-65
2022/11/06 11:32:11;;;;;;;;;;;20.20;65.80;;;;;;5059651;28;19924;-64
2022/11/06 11:34:42;;;;;;;;;;;20.20;65.80;;;;;;5049663;28;19924;-64
2022/11/06 11:37:19;;;;;;;;;;;20.20;65.70;;;;;;5070267;28;20022;-64
2022/11/06 11:39:44;;;;;;;;;;;20.20;65.80;;;;;;5052149;28;19924;-63
2022/11/06 11:42:15;;;;;;;;;;;20.20;65.80;;;;;;5073526;28;19924;-63
2022/11/06 11:44:41;;;;;;;;;;;20.20;66.40;;;;;;5072889;28;20004;-63
2022/11/06 11:47:18;;;;;;;;;;;20.20;65.80;;;;;;5040572;28;20357;-64
2022/11/06 11:49:44;;;;;;;;;;;20.20;65.70;;;;;;5052953;28;19960;-65
2022/11/06 11:52:10;;;;;;;;;;;20.30;65.80;;;;;;5053137;28;19971;-65
2022/11/06 11:54:36;;;;;;;;;;;20.20;65.80;;;;;;5053822;28;19935;-62
2022/11/06 11:57:02;;;;;;;;;;;20.30;65.80;;;;;;5053506;28;19924;-64
2022/11/06 11:59:47;;;;;;;;;;;20.30;65.80;;;;;;5053191;28;19983;-63
2022/11/06 12:02:20;;;;;;;;;;;20.20;65.70;;;;;;5053629;28;20326;-64
2022/11/06 12:04:46;;;;;;;;;;;20.20;65.70;;;;;;5052932;28;19928;-64
2022/11/06 12:07:22;;;;;;;;;;;20.20;65.70;;;;;;5035740;28;19925;-64
2022/11/06 12:09:48;;;;;;;;;;;20.20;65.50;;;;;;5053594;28;20392;-65
2022/11/06 12:12:18;;;;;;;;;;;20.20;65.60;;;;;;5052944;28;19921;-62
2022/11/06 12:14:44;;;;;;;;;;;20.20;65.60;;;;;;5051931;28;19925;-64
2022/11/06 12:17:13;;;;;;;;;;;20.20;65.60;;;;;;5058044;28;19932;-63
2022/11/06 12:19:39;;;;;;;;;;;20.20;65.50;;;;;;5054855;28;19928;-64
2022/11/06 12:22:13;;;;;;;;;;;20.20;65.50;;;;;;5055066;28;19925;-63
2022/11/06 12:24:46;;;;;;;;;;;20.20;65.50;;;;;;5054633;28;20445;-63
2022/11/06 12:27:27;;;;;;;;;;;20.20;65.30;;;;;;5054051;28;19977;-62
2022/11/06 12:30:06;;;;;;;;;;;20.20;65.40;;;;;;5071309;28;19931;-63
2022/11/06 12:32:36;;;;;;;;;;;20.20;65.50;;;;;;5071288;28;19963;-63
2022/11/06 12:35:12;;;;;;;;;;;20.20;65.60;;;;;;5071667;28;20288;-63
2022/11/06 12:37:39;;;;;;;;;;;20.10;65.60;;;;;;5072861;28;19936;-63
2022/11/06 12:40:24;;;;;;;;;;;20.20;65.60;;;;;;5054222;28;19985;-64
2022/11/06 12:42:57;;;;;;;;;;;20.20;65.70;;;;;;5072695;28;19924;-64
2022/11/06 12:45:34;;;;;;;;;;;20.20;65.60;;;;;;5054631;28;19931;-64
2022/11/06 12:48:12;;;;;;;;;;;20.20;65.60;;;;;;5046722;28;20334;-65
2022/11/06 12:50:40;;;;;;;;;;;20.20;65.70;;;;;;5052773;28;19972;-62
2022/11/06 12:53:12;;;;;;;;;;;20.10;65.60;;;;;;5064411;28;19979;-62
2022/11/06 12:55:41;;;;;;;;;;;20.20;65.70;;;;;;5064296;28;19928;-65
2022/11/06 12:58:09;;;;;;;;;;;20.20;65.80;;;;;;5064422;28;20265;-64
2022/11/06 13:00:38;;;;;;;;;;;20.20;65.90;;;;;;5050931;28;20411;-65
2022/11/06 13:03:11;;;;;;;;;;;20.20;65.90;;;;;;5033052;28;19924;-63
2022/11/06 13:05:38;;;;;;;;;;;20.20;66.00;;;;;;5033240;28;19967;-64
2022/11/06 13:08:10;;;;;;;;;;;20.20;66.00;;;;;;5040900;28;19925;-64
2022/11/06 13:10:39;;;;;;;;;;;20.20;65.90;;;;;;5066977;28;19928;-64
2022/11/06 13:13:25;;;;;;;;;;;20.30;65.90;;;;;;5059166;28;20026;-64
2022/11/06 13:15:50;;;;;;;;;;;20.30;65.90;;;;;;5062966;28;20352;-64
2022/11/06 13:18:28;;;;;;;;;;;20.30;65.90;;;;;;5049220;28;20422;-73
2022/11/06 13:20:59;;;;;;;;;;;20.30;66.00;;;;;;5053878;28;19925;-61
2022/11/06 13:23:28;;;;;;;;;;;20.30;65.70;;;;;;5036579;28;20023;-61
2022/11/06 13:25:55;;;;;;;;;;;20.30;65.90;;;;;;5053859;28;19931;-62
2022/11/06 13:28:32;;;;;;;;;;;20.30;65.90;;;;;;5037280;28;19925;-62
2022/11/06 13:30:58;;;;;;;;;;;20.40;66.10;;;;;;5071265;28;19924;-62
2022/11/06 13:33:23;;;;;;;;;;;20.40;66.10;;;;;;5072389;28;20019;-62
2022/11/06 13:35:49;;;;;;;;;;;20.40;66.20;;;;;;5071748;28;19966;-63
2022/11/06 13:38:20;;;;;;;;;;;20.40;66.30;;;;;;5037294;28;19925;-62
2022/11/06 13:40:47;;;;;;;;;;;20.50;66.30;;;;;;5050908;28;20037;-62
2022/11/06 13:43:17;;;;;;;;;;;20.50;66.30;;;;;;5050435;28;20364;-63
2022/11/06 13:45:45;;;;;;;;;;;20.50;66.30;;;;;;5034151;28;19964;-63
2022/11/06 13:48:17;;;;;;;;;;;20.50;66.40;;;;;;5054078;28;19925;-63
2022/11/06 13:50:46;;;;;;;;;;;20.50;66.50;;;;;;5037408;28;19925;-62
2022/11/06 13:53:17;;;;;;;;;;;20.50;66.50;;;;;;5054913;28;19987;-62
2022/11/06 13:55:57;;;;;;;;;;;20.50;67.10;;;;;;5054770;28;19951;-63
2022/11/06 13:58:25;;;;;;;;;;;20.50;66.60;;;;;;5055175;28;19925;-63
2022/11/06 14:01:09;;;;;;;;;;;20.50;66.60;;;;;;5054544;28;19972;-64
2022/11/06 14:03:52;;;;;;;;;;;20.50;66.60;;;;;;5055684;28;20382;-64
2022/11/06 14:06:20;;;;;;;;;;;20.50;66.70;;;;;;5053959;28;19925;-63
2022/11/06 14:08:53;;;;;;;;;;;20.50;66.70;;;;;;5037703;28;19929;-63
2022/11/06 14:11:24;;;;;;;;;;;20.50;66.70;;;;;;5055201;28;19931;-63
2022/11/06 14:13:56;;;;;;;;;;;20.50;66.80;;;;;;5055634;28;19924;-63
2022/11/06 14:16:21;;;;;;;;;;;20.50;66.70;;;;;;5055768;28;19925;-62
2022/11/06 14:18:56;;;;;;;;;;;20.50;66.80;;;;;;5054870;28;19920;-63
2022/11/06 14:21:26;;;;;;;;;;;20.50;66.90;;;;;;5055221;28;20015;-63
2022/11/06 14:23:52;;;;;;;;;;;20.50;66.90;;;;;;5055420;28;19925;-64
2022/11/06 14:26:35;;;;;;;;;;;20.50;66.90;;;;;;5037193;28;19925;-62
2022/11/06 14:29:20;;;;;;;;;;;20.50;66.90;;;;;;5055185;28;20344;-62
2022/11/06 14:32:01;;;;;;;;;;;20.50;67.00;;;;;;5054896;28;19932;-63
2022/11/06 14:34:36;;;;;;;;;;;20.50;67.00;;;;;;5054878;28;19924;-64
2022/11/06 14:37:16;;;;;;;;;;;20.50;67.10;;;;;;5053990;28;20067;-64
2022/11/06 14:39:51;;;;;;;;;;;20.50;67.10;;;;;;5054714;28;19925;-64
2022/11/06 14:42:23;;;;;;;;;;;20.50;67.10;;;;;;5037204;28;20423;-63